Main page
METAR-TAF:

METAR-TAF

Airports :

Belgrade Nikola Tesla Airport

Belgrade, Serbia

latitude: 44-49N, longitude: 020-17E, elevation: 96 m

Current weather observation

The report was made 25 minutes ago, at 00:30 UTC
Wind 5 kt from the Southeast
Temperature 10°C
Humidity 46%
Pressure 1021 hPa
Visibility 10 km or more
no clouds below 1500 m and no cumulonimbus

METAR: LYBE 110030Z 14005KT CAVOK 10/M01 Q1021 NOSIG

Time: 02:55 (00:55 UTC)

Forecast

The report was made 1 hour and 55 minutes ago, at 23:00 UTC
Forecast valid from 11 at 00 UTC to 11 at 24 UTC
Wind 6 kt from the South/Southeast
Visibility 10 km or more
no clouds below 1500 m and no cumulonimbus
Becoming
from 11 at 09 UTC to 11 at 11 UTC
Wind 16 kt from the East/Southeast

TAF: LYBE 102300Z 1100/1124 15006KT CAVOK TX19/1113Z TN05/1104Z BECMG 1109/1111 12016KT

Weather observations and forecasts of more than 4000 airports (METAR and TAF reports).

The available stations are represented by yellow and red dots on the map.

Hover mouse over dot to see the name of the station.

Then click to see weather observations and forecasts.

To change the map : click on the green buttons with a black cross to zoom in, on the green button with a dash to zoom out, or on the green arrows for adjacent maps.


METAR-TAF: